Terminal Aerodrome Forecast
Issued by NWS

Home | Current Version | Previous Version | Text Only | Print | Product List | Glossary On
Versions: 1 2 3 4 5 6 7 8 9 10 11 12 13 14 15 16
000
FTUS41 KGYX 172320
TAFAUG
TAF
KAUG 172320Z 1800/1824 31005KT P6SM BKN250
     FM181400 00000KT P6SM OVC050
     FM181600 00000KT 3SM -SN OVC025
     FM181800 00000KT 1SM -SN OVC008
     FM182300 00000KT P6SM OVC015=

USA.gov is the U.S. government's official web portal to all federal, state and local government web resources and services.